Terminal Aerodrome Forecast
Issued by NWS Lake Charles, LA

Home | Current Version | Previous Version | Text Only | Print | Product List | Glossary On
Versions: 1 2 3 4 5 6 7 8 9 10 11 12 13
547
FTUS44 KLCH 221126
TAFARA
TAF
KARA 221126Z 2212/2312 16011KT P6SM -SHRA SCT007 OVC015
      TEMPO 2212/2214 4SM SHRA BKN007
     FM221400 23012KT P6SM VCSH OVC015
     FM221600 27014G19KT P6SM BKN015
     FM222000 30016G23KT P6SM SKC
     FM230100 30012KT P6SM SKC
     FM230600 30007KT P6SM SKC=

USA.gov is the U.S. government's official web portal to all federal, state and local government web resources and services.